Time;durP1;ratioP1;P1;durP2;ratioP2;P2;SDS_P1;SDS_P2;PMS_P1;PMS_P2;Temp;Humidity;BMP_temperature;BMP_pressure;BME280_temperature;BME280_humidity;BME280_pressure;Samples;Min_cycle;Max_cycle;Signal;HPM_P1;HPM_P2
2022/05/07 00:00:22;;;;;;;24.42;21.52;;;15.60;99.90;;;;;;5072811;28;20028;-69
2022/05/07 00:02:48;;;;;;;24.45;22.05;;;15.50;99.90;;;;;;5071825;28;20423;-69
2022/05/07 00:05:14;;;;;;;24.38;21.80;;;15.50;99.90;;;;;;5072347;28;20035;-69
2022/05/07 00:07:39;;;;;;;23.30;20.95;;;15.40;99.90;;;;;;5072004;28;20029;-69
2022/05/07 00:10:05;;;;;;;24.42;21.42;;;15.40;99.90;;;;;;5079746;28;20380;-70
2022/05/07 00:12:31;;;;;;;22.55;20.42;;;15.40;99.90;;;;;;5091308;28;20368;-70
2022/05/07 00:14:57;;;;;;;22.88;20.63;;;15.40;99.90;;;;;;5091674;28;20048;-70
2022/05/07 00:20:09;;;;;;;23.25;20.95;;;15.40;99.90;;;;;;5091558;28;20042;-70
2022/05/07 00:22:34;;;;;;;22.92;20.55;;;15.50;99.90;;;;;;5092300;28;20024;-70
2022/05/07 00:25:00;;;;;;;21.13;18.98;;;15.50;99.90;;;;;;5091705;28;20103;-70
2022/05/07 00:27:26;;;;;;;20.05;18.13;;;15.50;99.90;;;;;;5091830;28;20032;-69
2022/05/07 00:29:51;;;;;;;20.88;18.80;;;15.50;99.90;;;;;;5091676;28;20028;-69
2022/05/07 00:32:17;;;;;;;19.15;17.17;;;15.50;99.90;;;;;;5092209;28;20362;-69
2022/05/07 00:34:43;;;;;;;19.55;17.67;;;15.60;99.90;;;;;;5091277;28;20024;-68
2022/05/07 00:37:08;;;;;;;18.90;17.10;;;15.60;99.90;;;;;;5091230;28;20024;-69
2022/05/07 00:39:34;;;;;;;17.85;16.13;;;15.60;99.90;;;;;;5091870;28;20023;-69
2022/05/07 00:42:04;;;;;;;19.45;17.45;;;15.70;99.90;;;;;;5091229;28;20329;-69
2022/05/07 00:44:30;;;;;;;19.77;17.88;;;15.60;99.90;;;;;;5092080;28;20103;-69
2022/05/07 00:47:10;;;;;;;19.75;17.95;;;15.70;99.90;;;;;;5091390;28;20115;-69
2022/05/07 00:49:35;;;;;;;20.58;18.63;;;15.60;99.90;;;;;;5092142;28;20066;-70
2022/05/07 00:52:01;;;;;;;20.23;18.23;;;15.60;99.90;;;;;;5091298;28;20032;-69
2022/05/07 00:54:27;;;;;;;19.35;17.42;;;15.60;99.90;;;;;;5092308;28;20036;-69
2022/05/07 00:56:53;;;;;;;18.60;16.80;;;15.60;99.90;;;;;;5091240;28;20028;-70
2022/05/07 00:59:19;;;;;;;19.92;17.92;;;15.60;99.90;;;;;;5091917;28;20024;-70
2022/05/07 01:01:44;;;;;;;20.00;18.05;;;15.60;99.90;;;;;;5091663;28;20024;-69
2022/05/07 01:04:11;;;;;;;19.58;17.67;;;15.60;99.90;;;;;;5090985;28;20464;-69
2022/05/07 01:06:37;;;;;;;21.63;19.52;;;15.60;99.90;;;;;;5092160;28;20039;-69
2022/05/07 01:09:02;;;;;;;20.70;18.70;;;15.50;99.90;;;;;;5090876;28;20043;-69
2022/05/07 01:11:28;;;;;;;19.83;18.02;;;15.50;99.90;;;;;;5091546;28;20028;-69
2022/05/07 01:13:54;;;;;;;18.27;16.67;;;15.50;99.90;;;;;;5091147;28;20457;-68
2022/05/07 01:16:20;;;;;;;17.75;16.02;;;15.50;99.90;;;;;;5091504;28;20035;-70
2022/05/07 01:18:45;;;;;;;16.83;15.15;;;15.50;99.90;;;;;;5091760;28;20024;-70
2022/05/07 01:21:17;;;;;;;15.77;14.38;;;15.50;99.90;;;;;;5091162;28;20043;-70
2022/05/07 01:23:43;;;;;;;;;;;15.50;99.90;;;;;;5092184;28;20107;-70
2022/05/07 01:26:10;;;;;;;15.77;14.27;;;15.50;99.90;;;;;;5079920;28;20353;-69
2022/05/07 01:28:36;;;;;;;14.35;12.85;;;15.60;99.90;;;;;;5071392;28;20066;-69
2022/05/07 01:31:03;;;;;;;12.10;10.98;;;15.60;99.90;;;;;;5070830;28;20024;-69
2022/05/07 01:33:33;;;;;;;11.93;10.73;;;15.70;99.90;;;;;;5071494;28;20036;-69
2022/05/07 01:36:00;;;;;;;12.63;11.32;;;15.70;99.90;;;;;;5070631;28;20029;-70
2022/05/07 01:38:25;;;;;;;11.88;10.93;;;15.70;99.90;;;;;;5071344;28;20035;-69
2022/05/07 01:40:51;;;;;;;11.90;10.75;;;15.70;99.90;;;;;;5070822;28;20112;-70
2022/05/07 01:43:16;;;;;;;11.90;10.93;;;15.70;99.90;;;;;;5071020;28;20099;-69
2022/05/07 01:45:42;;;;;;;11.65;10.45;;;15.70;99.90;;;;;;5072239;28;20541;-69
2022/05/07 01:48:10;;;;;;;11.38;10.15;;;15.70;99.90;;;;;;5074307;28;20050;-70
2022/05/07 01:50:41;;;;;;;10.50;9.50;;;15.70;99.90;;;;;;5075013;28;20033;-70
2022/05/07 01:53:14;;;;;;;11.00;10.00;;;15.70;99.90;;;;;;5074430;28;20024;-69
2022/05/07 01:55:40;;;;;;;11.73;10.52;;;15.70;99.90;;;;;;5075296;28;20031;-68
2022/05/07 01:58:07;;;;;;;11.38;10.27;;;15.60;99.90;;;;;;5074277;28;20036;-69
2022/05/07 02:00:34;;;;;;;10.93;10.02;;;15.50;99.90;;;;;;5074910;28;20373;-68
2022/05/07 02:03:00;;;;;;;12.18;10.85;;;15.50;99.90;;;;;;5074195;28;20369;-69
2022/05/07 02:05:27;;;;;;;11.40;10.18;;;15.40;99.90;;;;;;5074704;28;20028;-69
2022/05/07 02:07:54;;;;;;;14.52;13.13;;;15.40;99.90;;;;;;5074063;28;20028;-70
2022/05/07 02:10:20;;;;;;;15.07;13.30;;;15.30;99.90;;;;;;5074523;28;20048;-69
2022/05/07 02:12:47;;;;;;;16.85;15.25;;;15.40;99.90;;;;;;5083728;28;20028;-69
2022/05/07 02:15:12;;;;;;;15.77;14.18;;;15.30;99.90;;;;;;5094083;28;20937;-70
2022/05/07 02:17:38;;;;;;;17.23;15.52;;;15.30;99.90;;;;;;5095019;28;20028;-69
2022/05/07 02:20:05;;;;;;;18.85;17.05;;;15.30;99.90;;;;;;5094173;28;20479;-69
2022/05/07 02:22:31;;;;;;;19.65;17.83;;;15.30;99.90;;;;;;5094683;28;20020;-70
2022/05/07 02:24:58;;;;;;;23.58;21.08;;;15.30;99.90;;;;;;5094257;28;20489;-70
2022/05/07 02:27:24;;;;;;;23.02;20.63;;;15.20;99.90;;;;;;5093328;28;20377;-70
2022/05/07 02:29:50;;;;;;;23.88;21.48;;;15.20;99.90;;;;;;5094215;28;20543;-69
2022/05/07 02:32:17;;;;;;;24.45;21.92;;;15.20;99.90;;;;;;5094117;28;20051;-70
2022/05/07 02:34:43;;;;;;;24.83;22.33;;;15.20;99.90;;;;;;5094111;28;20031;-69
2022/05/07 02:37:09;;;;;;;26.55;23.95;;;15.20;99.90;;;;;;5093843;28;20032;-69
2022/05/07 02:39:35;;;;;;;28.80;25.85;;;15.20;99.90;;;;;;5094367;28;20024;-70
2022/05/07 02:44:46;;;;;;;27.35;24.67;;;15.20;99.90;;;;;;5093999;28;20035;-69
2022/05/07 02:47:11;;;;;;;28.33;25.33;;;15.20;99.90;;;;;;5093567;28;20032;-70
2022/05/07 02:49:37;;;;;;;27.25;24.63;;;15.20;99.90;;;;;;5094134;28;20120;-68
2022/05/07 02:52:03;;;;;;;28.58;25.50;;;15.20;99.90;;;;;;5093454;28;20091;-68
2022/05/07 02:54:29;;;;;;;28.08;25.25;;;15.20;99.90;;;;;;5093750;28;20093;-69
2022/05/07 02:56:55;;;;;;;28.17;25.27;;;15.30;99.90;;;;;;5093045;28;20028;-68
2022/05/07 02:59:21;;;;;;;28.75;25.95;;;15.30;99.90;;;;;;5093684;28;20024;-69
2022/05/07 03:01:47;;;;;;;28.70;25.73;;;15.30;99.90;;;;;;5093619;28;20035;-69
2022/05/07 03:04:13;;;;;;;30.00;27.10;;;15.20;99.90;;;;;;5093525;28;20027;-69
2022/05/07 03:06:38;;;;;;;29.67;26.77;;;15.20;99.90;;;;;;5093872;28;20036;-69
2022/05/07 03:09:05;;;;;;;29.73;26.90;;;15.30;99.90;;;;;;5093090;28;20035;-70
2022/05/07 03:11:33;;;;;;;30.70;27.58;;;15.30;99.90;;;;;;5093711;28;20087;-67
2022/05/07 03:14:06;;;;;;;30.73;27.73;;;15.20;99.90;;;;;;5092870;28;20067;-69
2022/05/07 03:16:35;;;;;;;30.50;27.20;;;15.20;99.90;;;;;;5093646;28;20291;-68
2022/05/07 03:19:01;;;;;;;30.63;27.67;;;15.30;99.90;;;;;;5092961;28;20036;-69
2022/05/07 03:21:27;;;;;;;30.20;27.15;;;15.30;99.90;;;;;;5093667;28;20035;-69
2022/05/07 03:23:53;;;;;;;30.55;27.27;;;15.30;99.90;;;;;;5093272;28;20031;-69
2022/05/07 03:26:21;;;;;;;30.90;27.75;;;15.40;99.90;;;;;;5087287;28;20028;-69
2022/05/07 03:28:47;;;;;;;31.92;28.63;;;15.40;99.90;;;;;;5073055;28;20120;-69
2022/05/07 03:31:13;;;;;;;31.45;28.40;;;15.40;99.90;;;;;;5072584;28;20113;-69
2022/05/07 03:33:39;;;;;;;32.75;29.45;;;15.40;99.90;;;;;;5073021;28;20025;-69
2022/05/07 03:36:05;;;;;;;31.73;28.63;;;15.40;99.90;;;;;;5071077;28;20031;-70
2022/05/07 03:38:31;;;;;;;30.40;27.25;;;15.40;99.90;;;;;;5072957;28;20052;-70
2022/05/07 03:40:57;;;;;;;31.60;28.38;;;15.50;99.90;;;;;;5072865;28;20035;-69
2022/05/07 03:43:22;;;;;;;31.25;27.92;;;15.50;99.90;;;;;;5087839;28;20025;-69
2022/05/07 03:45:48;;;;;;;30.75;27.65;;;15.40;99.90;;;;;;5088059;28;20427;-69
2022/05/07 03:48:14;;;;;;;31.08;27.80;;;15.40;99.90;;;;;;5072088;28;20111;-68
2022/05/07 03:50:39;;;;;;;33.05;28.80;;;15.40;99.90;;;;;;5072617;28;20469;-68
2022/05/07 03:55:49;;;;;;;32.50;29.10;;;15.40;99.90;;;;;;5072617;28;20465;-68
2022/05/07 03:58:15;;;;;;;32.55;29.10;;;15.40;99.90;;;;;;5071818;28;20045;-69
2022/05/07 04:00:44;;;;;;;33.67;30.17;;;15.40;99.90;;;;;;5072358;28;20036;-69
2022/05/07 04:03:12;;;;;;;32.25;28.95;;;15.40;99.90;;;;;;5071530;28;20032;-69
2022/05/07 04:05:38;;;;;;;35.38;31.67;;;15.40;99.90;;;;;;5072769;28;20074;-69
2022/05/07 04:08:04;;;;;;;34.00;30.50;;;15.40;99.90;;;;;;5107237;28;20036;-69
2022/05/07 04:10:29;;;;;;;35.38;31.52;;;15.40;99.90;;;;;;5092624;28;20081;-69
2022/05/07 04:12:55;;;;;;;38.63;34.53;;;15.40;99.90;;;;;;5092516;28;20039;-69
2022/05/07 04:15:21;;;;;;;37.53;33.65;;;15.40;99.90;;;;;;5091519;28;20048;-69
2022/05/07 04:17:47;;;;;;;39.88;35.28;;;15.30;99.90;;;;;;5092226;28;20100;-69
2022/05/07 04:20:13;;;;;;;37.63;33.53;;;15.30;99.90;;;;;;5091715;28;20020;-69
2022/05/07 04:22:40;;;;;;;40.47;34.08;;;15.40;99.90;;;;;;5092093;28;20035;-68
2022/05/07 04:25:07;;;;;;;41.30;37.08;;;15.40;99.90;;;;;;5091674;28;20039;-70
2022/05/07 04:27:33;;;;;;;38.95;34.80;;;15.40;99.90;;;;;;5091294;28;20400;-69
2022/05/07 04:29:58;;;;;;;42.22;37.83;;;15.40;99.90;;;;;;5092345;28;20025;-68
2022/05/07 04:32:25;;;;;;;41.80;37.33;;;15.40;99.90;;;;;;5089255;28;20059;-69
2022/05/07 04:34:51;;;;;;;44.05;39.35;;;15.40;99.90;;;;;;5091381;28;20024;-69
2022/05/07 04:37:17;;;;;;;44.13;39.35;;;15.40;99.90;;;;;;5090847;28;20030;-70
2022/05/07 04:39:43;;;;;;;41.50;37.08;;;15.40;99.90;;;;;;5091399;28;20024;-70
2022/05/07 04:42:09;;;;;;;42.55;38.00;;;15.40;99.90;;;;;;5091016;28;20028;-70
2022/05/07 04:44:35;;;;;;;42.70;38.08;;;15.40;99.90;;;;;;5090397;28;20024;-70
2022/05/07 04:47:01;;;;;;;42.63;38.17;;;15.40;99.90;;;;;;5092120;28;20372;-70
2022/05/07 04:49:26;;;;;;;42.00;37.50;;;15.50;99.90;;;;;;5090989;28;20040;-69
2022/05/07 04:51:52;;;;;;;45.50;40.65;;;15.50;99.90;;;;;;5092038;28;20024;-69
2022/05/07 04:54:19;;;;;;;46.00;40.75;;;15.50;99.90;;;;;;5091376;28;20047;-70
2022/05/07 04:56:48;;;;;;;44.83;40.03;;;15.50;99.90;;;;;;5092040;28;20461;-69
2022/05/07 04:59:15;;;;;;;44.70;39.97;;;15.50;99.90;;;;;;5091187;28;20490;-69
2022/05/07 05:01:41;;;;;;;47.22;42.10;;;15.50;99.90;;;;;;5091806;28;20468;-68
2022/05/07 05:04:06;;;;;;;47.53;41.55;;;15.60;99.90;;;;;;5090953;28;20036;-69
2022/05/07 05:06:32;;;;;;;47.40;41.97;;;15.60;99.90;;;;;;5092179;28;20043;-69
2022/05/07 05:08:58;;;;;;;50.30;40.88;;;15.50;99.90;;;;;;5091412;28;20035;-70
2022/05/07 05:11:25;;;;;;;49.20;41.72;;;15.50;99.90;;;;;;5091528;28;20411;-69
2022/05/07 05:13:51;;;;;;;45.90;40.67;;;15.50;99.90;;;;;;5091604;28;20081;-69
2022/05/07 05:16:16;;;;;;;48.25;43.00;;;15.50;99.90;;;;;;5090776;28;20032;-70
2022/05/07 05:18:42;;;;;;;45.70;39.58;;;15.50;99.90;;;;;;5091532;28;20070;-70
2022/05/07 05:21:08;;;;;;;46.63;40.10;;;15.50;99.90;;;;;;5092793;28;20028;-70
2022/05/07 05:23:33;;;;;;;50.92;42.20;;;15.50;99.90;;;;;;5095845;28;20055;-69
2022/05/07 05:25:59;;;;;;;47.35;41.10;;;15.50;99.90;;;;;;5095795;28;20020;-69
2022/05/07 05:28:45;;;;;;;46.13;41.17;;;15.50;99.90;;;;;;5094769;28;20028;-69
2022/05/07 05:31:11;;;;;;;44.30;39.05;;;15.40;99.90;;;;;;5094886;28;20028;-70
2022/05/07 05:33:37;;;;;;;45.45;40.53;;;15.50;99.90;;;;;;5092352;28;20093;-69
2022/05/07 05:36:03;;;;;;;49.33;40.92;;;15.40;99.90;;;;;;5095665;28;20024;-69
2022/05/07 05:38:28;;;;;;;45.22;40.30;;;15.40;99.90;;;;;;5094606;28;20085;-69
2022/05/07 05:40:54;;;;;;;46.78;40.95;;;15.50;99.90;;;;;;5095492;28;20070;-69
2022/05/07 05:43:19;;;;;;;49.45;41.30;;;15.50;99.90;;;;;;5095032;28;20031;-70
2022/05/07 05:45:45;;;;;;;45.90;38.78;;;15.50;99.90;;;;;;5095650;28;20452;-69
2022/05/07 05:48:11;;;;;;;45.42;39.88;;;15.50;99.90;;;;;;5094681;28;20487;-69
2022/05/07 05:50:38;;;;;;;44.90;40.00;;;15.60;99.90;;;;;;5094781;28;20398;-69
2022/05/07 05:53:04;;;;;;;45.92;39.97;;;15.50;99.90;;;;;;5094577;28;20036;-69
2022/05/07 05:55:29;;;;;;;42.85;37.33;;;15.60;99.90;;;;;;5094029;28;20154;-70
2022/05/07 05:57:56;;;;;;;42.88;36.58;;;15.50;99.90;;;;;;5094669;28;20032;-69
2022/05/07 06:00:21;;;;;;;40.90;36.40;;;15.60;99.90;;;;;;5094356;28;20024;-69
2022/05/07 06:02:47;;;;;;;45.38;39.13;;;15.60;99.90;;;;;;5094830;28;20020;-70
2022/05/07 06:05:14;;;;;;;46.47;39.97;;;15.60;99.90;;;;;;5093607;28;20085;-69
2022/05/07 06:07:40;;;;;;;45.38;37.63;;;15.60;99.90;;;;;;5094810;28;20421;-70
2022/05/07 06:10:06;;;;;;;46.92;38.53;;;15.60;99.90;;;;;;5094369;28;20119;-69
2022/05/07 06:12:32;;;;;;;40.90;36.50;;;15.60;99.90;;;;;;5094052;28;20047;-69
2022/05/07 06:14:58;;;;;;;41.08;36.78;;;15.60;99.90;;;;;;5094038;28;20051;-69
2022/05/07 06:17:25;;;;;;;40.45;35.17;;;15.70;99.90;;;;;;5093670;28;20028;-69
2022/05/07 06:19:51;;;;;;;41.30;36.67;;;15.70;99.90;;;;;;5094526;28;20036;-69
2022/05/07 06:22:18;;;;;;;41.92;36.72;;;15.70;99.90;;;;;;5093488;28;20034;-68
2022/05/07 06:27:28;;;;;;;41.83;36.65;;;15.70;99.90;;;;;;5093474;28;20081;-69
2022/05/07 06:29:54;;;;;;;46.38;37.42;;;15.70;99.90;;;;;;5094170;28;20032;-69
2022/05/07 06:32:20;;;;;;;40.00;35.35;;;15.70;99.90;;;;;;5092283;28;20059;-69
2022/05/07 06:34:46;;;;;;;38.80;34.55;;;15.70;99.90;;;;;;5094262;28;20062;-68
2022/05/07 06:37:12;;;;;;;39.90;35.42;;;15.70;99.90;;;;;;5093720;28;20024;-69
2022/05/07 06:39:38;;;;;;;39.28;35.08;;;15.60;99.90;;;;;;5094259;28;20050;-68
2022/05/07 06:42:05;;;;;;;41.20;35.17;;;15.60;99.90;;;;;;5109777;28;20365;-69
2022/05/07 06:44:31;;;;;;;41.08;35.50;;;15.70;99.90;;;;;;5092134;28;20209;-68
2022/05/07 06:46:57;;;;;;;40.47;34.10;;;15.60;99.90;;;;;;5093922;28;20028;-69
2022/05/07 06:49:23;;;;;;;35.38;31.33;;;15.70;99.90;;;;;;5093119;28;20103;-68
2022/05/07 06:51:49;;;;;;;39.40;34.78;;;15.70;99.90;;;;;;5094105;28;20028;-68
2022/05/07 06:54:15;;;;;;;41.05;36.55;;;15.70;99.90;;;;;;5092933;28;20163;-69
2022/05/07 06:56:40;;;;;;;39.63;34.72;;;15.70;99.90;;;;;;5093987;28;20453;-69
2022/05/07 06:59:07;;;;;;;40.55;35.67;;;15.70;99.90;;;;;;5093895;28;20040;-69
2022/05/07 07:01:33;;;;;;;41.08;35.85;;;15.70;99.90;;;;;;5093103;28;20483;-68
2022/05/07 07:03:59;;;;;;;36.78;32.88;;;15.70;99.90;;;;;;5093415;28;20042;-67
2022/05/07 07:06:25;;;;;;;38.70;32.85;;;15.70;99.90;;;;;;5092773;28;20024;-67
2022/05/07 07:08:52;;;;;;;38.47;34.35;;;15.70;99.90;;;;;;5093180;28;20032;-67
2022/05/07 07:11:20;;;;;;;38.92;34.08;;;15.70;99.90;;;;;;5093207;28;20353;-68
2022/05/07 07:13:46;;;;;;;40.50;32.85;;;15.70;99.90;;;;;;5093482;28;20477;-68
2022/05/07 07:16:12;;;;;;;37.28;32.50;;;15.70;99.90;;;;;;5093540;28;20485;-69
2022/05/07 07:18:38;;;;;;;36.60;32.67;;;15.80;99.90;;;;;;5093676;28;20039;-68
2022/05/07 07:21:04;;;;;;;35.20;31.40;;;15.80;99.90;;;;;;5090451;28;20032;-67
2022/05/07 07:23:29;;;;;;;36.20;32.25;;;15.80;99.90;;;;;;5092670;28;20131;-67
2022/05/07 07:25:55;;;;;;;36.22;32.28;;;15.90;99.90;;;;;;5092952;28;20418;-68
2022/05/07 07:28:21;;;;;;;36.08;32.28;;;15.90;99.90;;;;;;5098727;28;20027;-68
2022/05/07 07:30:46;;;;;;;35.45;31.75;;;16.00;99.90;;;;;;5088742;28;20036;-68
2022/05/07 07:33:14;;;;;;;34.08;30.48;;;16.00;99.90;;;;;;5092834;28;20073;-68
2022/05/07 07:35:39;;;;;;;33.30;29.15;;;16.10;99.90;;;;;;5092567;28;20054;-68
2022/05/07 07:38:05;;;;;;;35.55;30.63;;;16.20;99.90;;;;;;5092916;28;20065;-67
2022/05/07 07:40:31;;;;;;;32.97;29.55;;;16.20;99.90;;;;;;5092262;28;20024;-68
2022/05/07 07:42:57;;;;;;;30.90;27.58;;;16.30;99.90;;;;;;5092511;28;20035;-68
2022/05/07 07:48:08;;;;;;;33.85;30.35;;;16.40;99.90;;;;;;5092847;28;20093;-68
2022/05/07 07:50:35;;;;;;;32.25;28.40;;;16.40;99.90;;;;;;5092040;28;20039;-68
2022/05/07 07:53:04;;;;;;;31.05;27.85;;;16.50;99.90;;;;;;5092625;28;20079;-68
2022/05/07 07:55:30;;;;;;;32.47;28.92;;;16.50;99.90;;;;;;5092157;28;20028;-68
2022/05/07 07:57:58;;;;;;;30.98;27.77;;;16.40;99.90;;;;;;5092444;28;20036;-68
2022/05/07 08:00:25;;;;;;;33.47;30.05;;;16.50;99.90;;;;;;5092087;28;20016;-68
2022/05/07 08:02:54;;;;;;;30.60;27.45;;;16.60;99.90;;;;;;5092629;28;20402;-68
2022/05/07 08:05:23;;;;;;;31.73;26.17;;;16.50;99.90;;;;;;5092100;28;20020;-68
2022/05/07 08:13:18;;;;;;;33.78;30.23;;;16.60;99.90;;;;;;5091460;28;20072;-68
2022/05/07 08:15:45;;;;;;;33.22;28.05;;;16.70;99.90;;;;;;5091720;28;20143;-69
2022/05/07 08:18:12;;;;;;;31.88;28.42;;;16.70;99.90;;;;;;5092289;28;20028;-69
2022/05/07 08:20:38;;;;;;;31.98;28.58;;;16.70;99.90;;;;;;5091696;28;20039;-68
2022/05/07 08:23:03;;;;;;;33.60;30.10;;;16.80;99.90;;;;;;5092257;28;20024;-68
2022/05/07 08:25:29;;;;;;;32.65;29.17;;;16.80;99.90;;;;;;5091717;28;20487;-67
2022/05/07 08:27:55;;;;;;;32.08;28.60;;;16.80;99.90;;;;;;5092204;28;20028;-67
2022/05/07 08:30:20;;;;;;;31.05;27.88;;;16.90;99.90;;;;;;5091487;28;20055;-68
2022/05/07 08:32:46;;;;;;;32.83;29.35;;;17.00;99.90;;;;;;5092010;28;20078;-69
2022/05/07 08:35:12;;;;;;;32.30;28.80;;;17.10;99.90;;;;;;5092018;28;20024;-67
2022/05/07 08:37:37;;;;;;;31.17;27.85;;;17.20;99.90;;;;;;5091114;28;20447;-67
2022/05/07 08:40:03;;;;;;;32.28;28.25;;;17.20;99.90;;;;;;5092027;28;20055;-67
2022/05/07 08:42:29;;;;;;;30.52;27.33;;;17.30;99.90;;;;;;5091195;28;20061;-67
2022/05/07 08:44:56;;;;;;;32.25;28.98;;;17.40;99.90;;;;;;5091772;28;20074;-68
2022/05/07 08:47:40;;;;;;;31.08;27.80;;;17.40;99.90;;;;;;5091539;28;20058;-68
2022/05/07 08:50:08;;;;;;;34.17;28.67;;;17.50;99.90;;;;;;5092104;28;20035;-68
2022/05/07 08:52:45;;;;;;;29.48;26.42;;;17.60;99.90;;;;;;5091371;28;20546;-67
2022/05/07 08:55:13;;;;;;;30.27;27.20;;;17.60;99.90;;;;;;5090994;28;20025;-67
2022/05/07 08:57:40;;;;;;;31.48;28.17;;;17.70;99.90;;;;;;5091384;28;20260;-68
2022/05/07 09:00:07;;;;;;;33.13;29.65;;;17.70;99.90;;;;;;5091665;28;20456;-68
2022/05/07 09:02:38;;;;;;;31.25;27.98;;;17.70;99.90;;;;;;5091212;28;20457;-68
2022/05/07 09:05:05;;;;;;;;;;;17.80;99.90;;;;;;5092423;28;20418;-68
2022/05/07 09:07:31;;;;;;;32.13;28.35;;;17.80;99.90;;;;;;5091073;28;20295;-68
2022/05/07 09:09:57;;;;;;;31.35;28.08;;;17.80;99.90;;;;;;5092233;28;20111;-68
2022/05/07 09:12:28;;;;;;;30.65;27.42;;;17.80;99.90;;;;;;5091189;28;20039;-68
2022/05/07 09:15:00;;;;;;;31.33;27.33;;;17.90;99.90;;;;;;5091531;28;20101;-67
2022/05/07 09:17:25;;;;;;;27.25;24.55;;;18.00;99.90;;;;;;5091236;28;20024;-67
2022/05/07 09:19:51;;;;;;;30.27;27.17;;;18.10;99.90;;;;;;5091581;28;20024;-67
2022/05/07 09:22:17;;;;;;;29.83;26.83;;;18.10;99.90;;;;;;5091415;28;20032;-67
2022/05/07 09:24:55;;;;;;;29.77;26.67;;;18.20;99.90;;;;;;5090883;28;20111;-68
2022/05/07 09:27:22;;;;;;;28.20;25.38;;;18.20;99.90;;;;;;5091218;28;20518;-70
2022/05/07 09:30:02;;;;;;;31.83;26.90;;;18.20;99.90;;;;;;5091523;28;20032;-68
2022/05/07 09:32:38;;;;;;;26.85;24.08;;;18.20;99.60;;;;;;5090819;28;20038;-68
2022/05/07 09:38:01;;;;;;;26.20;23.40;;;18.20;99.60;;;;;;5071412;28;20035;-67
2022/05/07 09:40:30;;;;;;;28.10;23.70;;;18.30;99.60;;;;;;5070677;28;20032;-69
2022/05/07 09:42:59;;;;;;;26.52;22.45;;;18.30;98.70;;;;;;5071191;28;20032;-68
2022/05/07 09:45:26;;;;;;;24.38;21.88;;;18.30;99.00;;;;;;5070542;28;20021;-69
2022/05/07 09:47:53;;;;;;;26.17;23.40;;;18.30;98.50;;;;;;5070950;28;20084;-69
2022/05/07 09:50:20;;;;;;;26.88;23.95;;;18.30;98.60;;;;;;5070976;28;20033;-68
2022/05/07 09:58:35;;;;;;;24.92;22.23;;;18.30;99.20;;;;;;5070954;28;20035;-68
2022/05/07 10:01:26;;;;;;;27.02;22.80;;;18.30;98.70;;;;;;5071185;28;20020;-68
2022/05/07 10:04:06;;;;;;;25.60;23.00;;;18.30;97.90;;;;;;5071183;28;20126;-68
2022/05/07 10:06:49;;;;;;;25.50;22.90;;;18.30;98.10;;;;;;5071551;28;20020;-68
2022/05/07 10:09:49;;;;;;;25.48;22.77;;;18.20;98.30;;;;;;5074544;28;20025;-68
2022/05/07 10:12:19;;;;;;;24.77;21.35;;;18.10;98.60;;;;;;5074308;28;20032;-68
2022/05/07 10:14:45;;;;;;;26.10;22.60;;;18.10;99.30;;;;;;5073714;28;20059;-68
2022/05/07 10:17:13;;;;;;;25.48;20.98;;;18.00;98.40;;;;;;5089626;28;20024;-68
2022/05/07 10:19:43;;;;;;;23.67;21.17;;;18.00;99.00;;;;;;5093833;28;20035;-67
2022/05/07 10:22:21;;;;;;;24.10;21.33;;;17.90;98.80;;;;;;5094248;28;20503;-68
2022/05/07 10:24:48;;;;;;;23.83;21.52;;;17.90;99.10;;;;;;5093944;28;20457;-66
2022/05/07 10:27:22;;;;;;;23.02;20.70;;;17.90;99.50;;;;;;5094235;28;20487;-67
2022/05/07 10:29:48;;;;;;;23.70;21.05;;;18.00;99.90;;;;;;5093731;28;20036;-67
2022/05/07 10:32:18;;;;;;;23.13;20.90;;;18.00;99.90;;;;;;5094537;28;20108;-66
2022/05/07 10:34:52;;;;;;;24.38;21.08;;;18.00;99.90;;;;;;5093947;28;20506;-68
2022/05/07 10:37:18;;;;;;;21.45;19.25;;;18.00;99.90;;;;;;5094277;28;20028;-67
2022/05/07 10:39:53;;;;;;;21.83;19.63;;;18.10;99.90;;;;;;5093395;28;20039;-67
2022/05/07 10:42:21;;;;;;;22.00;19.90;;;18.10;99.90;;;;;;5092953;28;20092;-68
2022/05/07 10:44:47;;;;;;;22.08;19.77;;;18.10;99.90;;;;;;5093702;28;20027;-68
2022/05/07 10:47:15;;;;;;;20.58;18.48;;;18.10;99.90;;;;;;5109866;28;20028;-68
2022/05/07 10:50:12;;;;;;;20.48;18.42;;;18.10;99.90;;;;;;5093458;28;20059;-68
2022/05/07 10:52:56;;;;;;;20.70;18.52;;;18.10;99.90;;;;;;5093421;28;20536;-67
2022/05/07 10:55:27;;;;;;;21.10;18.95;;;18.10;98.80;;;;;;5093970;28;20023;-68
2022/05/07 10:57:55;;;;;;;18.10;16.17;;;18.20;98.60;;;;;;5093531;28;20032;-67
2022/05/07 11:00:22;;;;;;;19.40;17.40;;;18.10;98.60;;;;;;5093797;28;20421;-67
2022/05/07 11:02:56;;;;;;;20.27;17.60;;;18.20;98.90;;;;;;5093193;28;20339;-67
2022/05/07 11:05:31;;;;;;;18.50;15.93;;;18.20;98.20;;;;;;5093599;28;20433;-68
2022/05/07 11:08:02;;;;;;;18.40;16.27;;;18.30;99.10;;;;;;5093316;28;20132;-68
2022/05/07 11:10:28;;;;;;;22.08;16.35;;;18.40;97.90;;;;;;5093597;28;20032;-67
2022/05/07 11:13:15;;;;;;;16.95;15.15;;;18.40;97.40;;;;;;5092217;28;20059;-68
2022/05/07 11:15:41;;;;;;;21.55;16.70;;;18.40;96.70;;;;;;5090428;28;20052;-68
2022/05/07 11:18:16;;;;;;;16.38;14.68;;;18.50;96.00;;;;;;5092838;28;20063;-68
2022/05/07 11:20:41;;;;;;;17.40;15.60;;;18.50;96.20;;;;;;5092713;28;20028;-68
2022/05/07 11:23:12;;;;;;;16.35;14.65;;;18.60;96.20;;;;;;5093189;28;20073;-68
2022/05/07 11:25:38;;;;;;;16.00;14.30;;;18.70;96.30;;;;;;5092854;28;20031;-68
2022/05/07 11:28:04;;;;;;;17.45;14.52;;;18.90;95.70;;;;;;5092867;28;20039;-69
2022/05/07 11:30:30;;;;;;;16.00;13.85;;;18.90;94.50;;;;;;5092592;28;20024;-69
2022/05/07 11:33:03;;;;;;;17.20;13.07;;;18.90;94.80;;;;;;5089724;28;20012;-69
2022/05/07 11:35:29;;;;;;;18.88;14.77;;;19.00;93.80;;;;;;5093068;28;20051;-71
2022/05/07 11:37:55;;;;;;;16.50;14.77;;;19.00;94.00;;;;;;5093049;28;20464;-68
2022/05/07 11:40:29;;;;;;;17.55;15.75;;;19.10;93.90;;;;;;5093059;28;20024;-68
2022/05/07 11:46:06;;;;;;;15.70;14.15;;;19.10;93.80;;;;;;5090564;28;20028;-69
2022/05/07 11:48:32;;;;;;;15.30;13.65;;;19.10;93.60;;;;;;5089637;28;20451;-67
2022/05/07 11:51:01;;;;;;;15.18;13.68;;;19.20;93.60;;;;;;5081265;28;20070;-68
2022/05/07 11:53:35;;;;;;;16.23;14.63;;;19.20;93.00;;;;;;5071066;28;20119;-68
2022/05/07 11:56:11;;;;;;;15.63;13.88;;;19.20;92.00;;;;;;5071333;28;20477;-68
2022/05/07 11:58:40;;;;;;;13.45;12.18;;;19.20;92.90;;;;;;5070961;28;20028;-68
2022/05/07 12:01:20;;;;;;;14.82;13.10;;;19.30;92.40;;;;;;5070912;28;20025;-68
2022/05/07 12:03:47;;;;;;;15.68;12.32;;;19.30;91.60;;;;;;5070812;28;20438;-67
2022/05/07 12:06:27;;;;;;;14.05;12.40;;;19.30;91.80;;;;;;5071460;28;20020;-67
2022/05/07 12:08:53;;;;;;;14.90;12.85;;;19.30;91.60;;;;;;5071420;28;20051;-68
2022/05/07 12:14:03;;;;;;;13.70;12.00;;;19.40;91.50;;;;;;5071977;28;20133;-67
2022/05/07 12:19:13;;;;;;;13.52;12.13;;;19.30;90.10;;;;;;5072261;28;20036;-67
2022/05/07 12:29:51;;;;;;;15.25;13.68;;;19.20;91.40;;;;;;5091573;28;20030;-69
2022/05/07 12:32:20;;;;;;;13.40;12.05;;;19.30;91.60;;;;;;5092072;28;20032;-67
2022/05/07 12:34:47;;;;;;;14.77;13.32;;;19.30;91.30;;;;;;5091583;28;20025;-67
2022/05/07 12:37:13;;;;;;;13.85;12.45;;;19.30;91.30;;;;;;5092210;28;20115;-67
2022/05/07 12:39:39;;;;;;;14.68;13.27;;;19.30;91.70;;;;;;5091339;28;20032;-69
2022/05/07 12:42:10;;;;;;;13.43;12.13;;;19.30;91.00;;;;;;5091920;28;20028;-67
2022/05/07 12:44:36;;;;;;;14.48;13.18;;;19.40;91.10;;;;;;5091543;28;20024;-68
2022/05/07 12:47:03;;;;;;;14.07;12.68;;;19.30;91.50;;;;;;5092046;28;20032;-68
2022/05/07 12:49:29;;;;;;;14.70;13.13;;;19.30;91.50;;;;;;5091969;28;20057;-69
2022/05/07 12:51:55;;;;;;;13.30;11.90;;;19.30;91.20;;;;;;5091416;28;20036;-69
2022/05/07 12:54:21;;;;;;;14.68;12.13;;;19.30;91.90;;;;;;5092087;28;20024;-69
2022/05/07 12:56:48;;;;;;;16.88;13.82;;;19.30;91.60;;;;;;5091244;28;20028;-68
2022/05/07 12:59:14;;;;;;;14.70;13.30;;;19.40;91.40;;;;;;5091843;28;20035;-68
2022/05/07 13:01:39;;;;;;;14.38;13.07;;;19.30;91.60;;;;;;5091184;28;20107;-68
2022/05/07 13:04:05;;;;;;;13.23;12.00;;;19.30;91.80;;;;;;5091924;28;20027;-68
2022/05/07 13:06:31;;;;;;;14.95;13.35;;;19.40;91.80;;;;;;5091870;28;20028;-67
2022/05/07 13:08:59;;;;;;;14.85;13.35;;;19.40;91.30;;;;;;5091093;28;20384;-67
2022/05/07 13:11:25;;;;;;;16.55;13.07;;;19.50;91.90;;;;;;5091784;28;20036;-68
2022/05/07 13:13:51;;;;;;;14.63;13.15;;;19.50;91.60;;;;;;5090751;28;20075;-69